sensor_id;sensor_type;location;lat;lon;timestamp;pressure;altitude;pressure_sealevel;temperature;humidity
75549;BME280;64133;56.002;37.208;2023-08-20T00:02:58;99561.49;;;20.08;76.63
75549;BME280;64133;56.002;37.208;2023-08-20T00:08:01;99547.88;;;19.99;77.00
75549;BME280;64133;56.002;37.208;2023-08-20T00:13:06;99548.42;;;19.95;77.15
75549;BME280;64133;56.002;37.208;2023-08-20T00:18:12;99528.13;;;19.86;77.57
75549;BME280;64133;56.002;37.208;2023-08-20T00:23:17;99519.40;;;19.88;77.42
75549;BME280;64133;56.002;37.208;2023-08-20T00:28:22;99515.81;;;19.76;77.80
75549;BME280;64133;56.002;37.208;2023-08-20T00:33:27;99502.98;;;19.72;77.76
75549;BME280;64133;56.002;37.208;2023-08-20T00:38:31;99497.91;;;19.62;78.36
75549;BME280;64133;56.002;37.208;2023-08-20T00:43:36;99498.89;;;19.65;78.13
75549;BME280;64133;56.002;37.208;2023-08-20T00:48:41;99506.75;;;19.58;78.46
75549;BME280;64133;56.002;37.208;2023-08-20T00:53:45;99520.81;;;19.56;78.49
75549;BME280;64133;56.002;37.208;2023-08-20T00:58:50;99506.05;;;19.69;78.48
75549;BME280;64133;56.002;37.208;2023-08-20T01:03:55;99498.89;;;19.65;78.03
75549;BME280;64133;56.002;37.208;2023-08-20T01:09:01;99498.82;;;19.73;78.08
75549;BME280;64133;56.002;37.208;2023-08-20T01:14:09;99498.00;;;19.88;77.70
75549;BME280;64133;56.002;37.208;2023-08-20T01:19:15;99500.33;;;19.91;77.78
75549;BME280;64133;56.002;37.208;2023-08-20T01:24:23;99492.02;;;19.86;78.31
75549;BME280;64133;56.002;37.208;2023-08-20T01:29:27;99494.05;;;19.65;78.55
75549;BME280;64133;56.002;37.208;2023-08-20T01:34:31;99475.30;;;19.46;78.78
75549;BME280;64133;56.002;37.208;2023-08-20T01:39:36;99483.72;;;19.39;79.60
75549;BME280;64133;56.002;37.208;2023-08-20T01:44:41;99477.39;;;19.36;79.73
75549;BME280;64133;56.002;37.208;2023-08-20T01:49:45;99470.86;;;19.57;79.25
75549;BME280;64133;56.002;37.208;2023-08-20T01:54:50;99471.18;;;19.58;79.16
75549;BME280;64133;56.002;37.208;2023-08-20T01:59:55;99474.59;;;19.52;79.16
75549;BME280;64133;56.002;37.208;2023-08-20T02:05:00;99475.19;;;19.58;79.52
75549;BME280;64133;56.002;37.208;2023-08-20T02:10:06;99482.16;;;19.44;79.55
75549;BME280;64133;56.002;37.208;2023-08-20T02:15:11;99483.94;;;19.52;79.82
75549;BME280;64133;56.002;37.208;2023-08-20T02:20:16;99516.72;;;19.23;80.32
75549;BME280;64133;56.002;37.208;2023-08-20T02:25:21;99536.80;;;18.88;81.54
75549;BME280;64133;56.002;37.208;2023-08-20T02:30:26;99542.88;;;18.73;81.18
75549;BME280;64133;56.002;37.208;2023-08-20T02:35:31;99529.11;;;18.89;80.63
75549;BME280;64133;56.002;37.208;2023-08-20T02:40:39;99521.52;;;19.04;80.31
75549;BME280;64133;56.002;37.208;2023-08-20T02:45:44;99508.22;;;18.96;80.10
75549;BME280;64133;56.002;37.208;2023-08-20T02:50:49;99518.84;;;18.77;80.24
75549;BME280;64133;56.002;37.208;2023-08-20T02:55:54;99531.41;;;19.23;79.70
75549;BME280;64133;56.002;37.208;2023-08-20T03:00:58;99538.44;;;19.20;78.92
75549;BME280;64133;56.002;37.208;2023-08-20T03:06:03;99543.44;;;19.23;79.05
75549;BME280;64133;56.002;37.208;2023-08-20T03:11:08;99524.39;;;19.26;79.08
75549;BME280;64133;56.002;37.208;2023-08-20T03:16:13;99522.55;;;19.26;78.64
75549;BME280;64133;56.002;37.208;2023-08-20T03:21:17;99536.89;;;19.29;78.66
75549;BME280;64133;56.002;37.208;2023-08-20T03:26:22;99521.04;;;19.51;78.55
75549;BME280;64133;56.002;37.208;2023-08-20T03:31:27;99505.22;;;19.68;78.25
75549;BME280;64133;56.002;37.208;2023-08-20T03:36:31;99500.27;;;19.57;77.79
75549;BME280;64133;56.002;37.208;2023-08-20T03:41:36;99481.66;;;19.45;78.46
75549;BME280;64133;56.002;37.208;2023-08-20T03:46:41;99487.03;;;19.41;78.22
75549;BME280;64133;56.002;37.208;2023-08-20T03:51:45;99478.83;;;19.46;78.61
75549;BME280;64133;56.002;37.208;2023-08-20T03:56:50;99477.51;;;19.65;78.45
75549;BME280;64133;56.002;37.208;2023-08-20T04:01:55;99471.42;;;19.71;78.07
75549;BME280;64133;56.002;37.208;2023-08-20T04:06:59;99453.17;;;19.56;78.05
75549;BME280;64133;56.002;37.208;2023-08-20T04:12:05;99435.91;;;19.96;77.00
75549;BME280;64133;56.002;37.208;2023-08-20T04:17:09;99427.48;;;20.03;76.89
75549;BME280;64133;56.002;37.208;2023-08-20T04:22:14;99423.49;;;20.14;76.24
75549;BME280;64133;56.002;37.208;2023-08-20T04:27:19;99410.84;;;20.38;75.86
75549;BME280;64133;56.002;37.208;2023-08-20T04:32:24;99405.53;;;20.48;75.64
75549;BME280;64133;56.002;37.208;2023-08-20T04:37:28;99403.08;;;20.43;75.64
75549;BME280;64133;56.002;37.208;2023-08-20T04:42:33;99406.43;;;20.41;75.85
75549;BME280;64133;56.002;37.208;2023-08-20T04:47:38;99421.02;;;20.53;75.97
75549;BME280;64133;56.002;37.208;2023-08-20T04:52:42;99408.83;;;20.87;75.06
75549;BME280;64133;56.002;37.208;2023-08-20T04:57:47;99410.66;;;20.75;75.24
75549;BME280;64133;56.002;37.208;2023-08-20T05:02:52;99414.36;;;20.64;75.12
75549;BME280;64133;56.002;37.208;2023-08-20T05:07:56;99402.80;;;20.63;75.51
75549;BME280;64133;56.002;37.208;2023-08-20T05:13:01;99399.63;;;20.74;75.02
75549;BME280;64133;56.002;37.208;2023-08-20T05:18:06;99395.36;;;20.69;75.40
75549;BME280;64133;56.002;37.208;2023-08-20T05:23:11;99391.09;;;20.96;75.28
75549;BME280;64133;56.002;37.208;2023-08-20T05:28:15;99379.02;;;21.07;74.65
75549;BME280;64133;56.002;37.208;2023-08-20T05:33:20;99378.46;;;21.12;74.26
75549;BME280;64133;56.002;37.208;2023-08-20T05:38:25;99380.15;;;21.30;73.73
75549;BME280;64133;56.002;37.208;2023-08-20T05:43:29;99385.64;;;21.22;73.96
75549;BME280;64133;56.002;37.208;2023-08-20T05:48:37;99375.98;;;20.99;74.99
75549;BME280;64133;56.002;37.208;2023-08-20T05:53:39;99370.22;;;21.13;74.77
75549;BME280;64133;56.002;37.208;2023-08-20T05:58:44;99375.83;;;21.57;73.73
75549;BME280;64133;56.002;37.208;2023-08-20T06:03:48;99370.47;;;21.98;72.73
75549;BME280;64133;56.002;37.208;2023-08-20T06:08:53;99380.73;;;22.05;71.81
75549;BME280;64133;56.002;37.208;2023-08-20T06:13:58;99373.06;;;21.96;71.81
75549;BME280;64133;56.002;37.208;2023-08-20T06:19:05;99373.80;;;22.18;71.28
75549;BME280;64133;56.002;37.208;2023-08-20T06:24:08;99370.59;;;22.49;70.83
75549;BME280;64133;56.002;37.208;2023-08-20T06:29:13;99381.00;;;22.35;71.00
75549;BME280;64133;56.002;37.208;2023-08-20T06:34:18;99382.08;;;22.53;70.57
75549;BME280;64133;56.002;37.208;2023-08-20T06:39:22;99376.61;;;22.57;70.14
75549;BME280;64133;56.002;37.208;2023-08-20T06:44:27;99372.46;;;22.48;70.32
75549;BME280;64133;56.002;37.208;2023-08-20T06:49:32;99368.44;;;23.05;69.62
75549;BME280;64133;56.002;37.208;2023-08-20T06:54:37;99374.66;;;22.55;69.45
75549;BME280;64133;56.002;37.208;2023-08-20T06:59:41;99364.36;;;22.79;68.98
75549;BME280;64133;56.002;37.208;2023-08-20T07:04:47;99357.99;;;23.20;68.86
75549;BME280;64133;56.002;37.208;2023-08-20T07:09:51;99355.77;;;23.59;67.13
75549;BME280;64133;56.002;37.208;2023-08-20T07:14:56;99344.52;;;23.66;66.77
75549;BME280;64133;56.002;37.208;2023-08-20T07:20:01;99338.73;;;24.21;65.66
75549;BME280;64133;56.002;37.208;2023-08-20T07:25:07;99340.91;;;24.75;63.89
75549;BME280;64133;56.002;37.208;2023-08-20T07:30:12;99339.63;;;24.69;63.60
75549;BME280;64133;56.002;37.208;2023-08-20T07:35:17;99331.87;;;24.95;63.24
75549;BME280;64133;56.002;37.208;2023-08-20T07:40:22;99329.28;;;24.81;62.98
75549;BME280;64133;56.002;37.208;2023-08-20T07:45:27;99331.95;;;25.06;62.25
75549;BME280;64133;56.002;37.208;2023-08-20T07:50:31;99331.16;;;25.31;61.61
75549;BME280;64133;56.002;37.208;2023-08-20T07:55:36;99329.52;;;25.39;61.20
75549;BME280;64133;56.002;37.208;2023-08-20T08:00:41;99328.63;;;25.64;60.40
75549;BME280;64133;56.002;37.208;2023-08-20T08:05:48;99323.66;;;25.33;59.74
75549;BME280;64133;56.002;37.208;2023-08-20T08:10:52;99328.64;;;25.20;59.22
75549;BME280;64133;56.002;37.208;2023-08-20T08:15:57;99328.58;;;25.18;58.48
75549;BME280;64133;56.002;37.208;2023-08-20T08:21:02;99314.31;;;25.54;57.43
75549;BME280;64133;56.002;37.208;2023-08-20T08:26:06;99310.35;;;25.66;57.10
75549;BME280;64133;56.002;37.208;2023-08-20T08:31:11;99306.02;;;26.31;55.66
75549;BME280;64133;56.002;37.208;2023-08-20T08:36:16;99301.45;;;25.84;55.85
75549;BME280;64133;56.002;37.208;2023-08-20T08:41:21;99295.57;;;25.50;56.22
75549;BME280;64133;56.002;37.208;2023-08-20T08:46:26;99306.69;;;25.69;55.95
75549;BME280;64133;56.002;37.208;2023-08-20T08:51:31;99307.50;;;25.70;56.04
75549;BME280;64133;56.002;37.208;2023-08-20T08:56:35;99298.16;;;25.91;55.39
75549;BME280;64133;56.002;37.208;2023-08-20T09:01:40;99299.69;;;26.17;54.73
75549;BME280;64133;56.002;37.208;2023-08-20T09:06:50;99306.20;;;26.18;55.06
75549;BME280;64133;56.002;37.208;2023-08-20T09:11:54;99305.32;;;26.45;54.26
75549;BME280;64133;56.002;37.208;2023-08-20T09:16:59;99317.82;;;26.19;53.97
75549;BME280;64133;56.002;37.208;2023-08-20T09:22:04;99304.42;;;27.07;52.95
75549;BME280;64133;56.002;37.208;2023-08-20T09:27:09;99286.74;;;25.89;54.30
75549;BME280;64133;56.002;37.208;2023-08-20T09:32:16;99287.02;;;26.29;52.72
75549;BME280;64133;56.002;37.208;2023-08-20T09:37:21;99266.69;;;26.77;51.86
75549;BME280;64133;56.002;37.208;2023-08-20T09:42:25;99272.91;;;26.06;52.98
75549;BME280;64133;56.002;37.208;2023-08-20T09:47:29;99272.08;;;26.36;52.08
75549;BME280;64133;56.002;37.208;2023-08-20T09:52:38;99272.11;;;26.56;51.67
75549;BME280;64133;56.002;37.208;2023-08-20T09:57:41;99275.49;;;26.85;51.32
75549;BME280;64133;56.002;37.208;2023-08-20T10:02:46;99277.28;;;26.58;51.18
75549;BME280;64133;56.002;37.208;2023-08-20T10:07:51;99275.61;;;26.06;52.29
75549;BME280;64133;56.002;37.208;2023-08-20T10:12:55;99262.53;;;26.63;51.30
75549;BME280;64133;56.002;37.208;2023-08-20T10:18:00;99248.68;;;26.95;50.56
75549;BME280;64133;56.002;37.208;2023-08-20T10:23:05;99248.58;;;27.37;49.76
75549;BME280;64133;56.002;37.208;2023-08-20T10:28:14;99222.64;;;27.03;51.25
75549;BME280;64133;56.002;37.208;2023-08-20T10:33:18;99211.42;;;26.85;51.20
75549;BME280;64133;56.002;37.208;2023-08-20T10:38:23;99221.00;;;25.83;52.99
75549;BME280;64133;56.002;37.208;2023-08-20T10:43:32;99212.08;;;25.73;53.34
75549;BME280;64133;56.002;37.208;2023-08-20T10:48:37;99207.53;;;25.37;54.48
75549;BME280;64133;56.002;37.208;2023-08-20T10:53:41;99212.06;;;24.91;56.50
75549;BME280;64133;56.002;37.208;2023-08-20T10:58:46;99212.20;;;24.87;57.13
75549;BME280;64133;56.002;37.208;2023-08-20T11:03:50;99208.01;;;24.81;57.93
75549;BME280;64133;56.002;37.208;2023-08-20T11:08:55;99201.83;;;25.45;56.69
75549;BME280;64133;56.002;37.208;2023-08-20T11:14:03;99182.68;;;26.93;53.86
75549;BME280;64133;56.002;37.208;2023-08-20T11:19:05;99182.23;;;26.40;54.58
75549;BME280;64133;56.002;37.208;2023-08-20T11:24:10;99177.17;;;25.42;56.11
75549;BME280;64133;56.002;37.208;2023-08-20T11:29:15;99186.53;;;24.59;57.68
75549;BME280;64133;56.002;37.208;2023-08-20T11:34:20;99200.31;;;23.81;60.16
75549;BME280;64133;56.002;37.208;2023-08-20T11:39:25;99210.97;;;23.33;62.03
75549;BME280;64133;56.002;37.208;2023-08-20T11:44:41;99221.08;;;22.43;65.93
75549;BME280;64133;56.002;37.208;2023-08-20T11:49:34;99227.77;;;21.55;70.11
75549;BME280;64133;56.002;37.208;2023-08-20T11:54:39;99223.09;;;21.77;70.36
75549;BME280;64133;56.002;37.208;2023-08-20T11:59:43;99225.59;;;21.37;70.46
75549;BME280;64133;56.002;37.208;2023-08-20T12:04:50;99209.93;;;21.23;70.63
75549;BME280;64133;56.002;37.208;2023-08-20T12:09:55;99209.03;;;21.09;71.84
75549;BME280;64133;56.002;37.208;2023-08-20T12:15:00;99211.41;;;21.08;72.54
75549;BME280;64133;56.002;37.208;2023-08-20T12:20:06;99210.50;;;21.12;73.22
75549;BME280;64133;56.002;37.208;2023-08-20T12:25:13;99224.36;;;21.22;73.53
75549;BME280;64133;56.002;37.208;2023-08-20T12:30:18;99214.47;;;21.33;73.91
75549;BME280;64133;56.002;37.208;2023-08-20T12:35:22;99212.97;;;21.48;73.81
75549;BME280;64133;56.002;37.208;2023-08-20T12:40:28;99206.76;;;21.72;73.60
75549;BME280;64133;56.002;37.208;2023-08-20T12:45:33;99207.27;;;21.65;74.35
75549;BME280;64133;56.002;37.208;2023-08-20T12:50:37;99217.56;;;21.98;73.75
75549;BME280;64133;56.002;37.208;2023-08-20T12:55:42;99203.39;;;23.04;70.81
75549;BME280;64133;56.002;37.208;2023-08-20T13:00:47;99195.73;;;23.59;69.56
75549;BME280;64133;56.002;37.208;2023-08-20T13:05:52;99193.27;;;23.35;69.65
75549;BME280;64133;56.002;37.208;2023-08-20T13:10:58;99184.02;;;23.18;70.36
75549;BME280;64133;56.002;37.208;2023-08-20T13:21:32;99174.14;;;23.56;70.41
75549;BME280;64133;56.002;37.208;2023-08-20T13:26:39;99173.67;;;23.89;69.59
75549;BME280;64133;56.002;37.208;2023-08-20T13:31:45;99165.69;;;23.75;69.35
75549;BME280;64133;56.002;37.208;2023-08-20T13:36:55;99159.18;;;23.51;70.27
75549;BME280;64133;56.002;37.208;2023-08-20T13:42:03;99150.78;;;23.28;69.79
75549;BME280;64133;56.002;37.208;2023-08-20T13:53:26;99144.05;;;23.12;69.17
75549;BME280;64133;56.002;37.208;2023-08-20T13:58:32;99128.16;;;22.84;68.99
75549;BME280;64133;56.002;37.208;2023-08-20T14:03:58;99123.48;;;22.60;69.44
75549;BME280;64133;56.002;37.208;2023-08-20T14:09:09;99114.09;;;22.89;69.43
75549;BME280;64133;56.002;37.208;2023-08-20T14:14:13;99111.87;;;23.15;68.75
75549;BME280;64133;56.002;37.208;2023-08-20T14:19:24;99119.09;;;22.92;69.55
75549;BME280;64133;56.002;37.208;2023-08-20T14:24:28;99141.63;;;21.91;72.06
75549;BME280;64133;56.002;37.208;2023-08-20T14:29:33;99145.05;;;20.87;76.47
75549;BME280;64133;56.002;37.208;2023-08-20T14:34:38;99143.06;;;20.84;78.04
75549;BME280;64133;56.002;37.208;2023-08-20T14:39:43;99146.29;;;21.08;77.30
75549;BME280;64133;56.002;37.208;2023-08-20T14:44:47;99145.70;;;21.37;77.22
75549;BME280;64133;56.002;37.208;2023-08-20T14:49:52;99144.35;;;21.67;76.87
75549;BME280;64133;56.002;37.208;2023-08-20T14:54:57;99150.24;;;21.19;77.29
75549;BME280;64133;56.002;37.208;2023-08-20T15:00:02;99149.15;;;21.06;77.55
75549;BME280;64133;56.002;37.208;2023-08-20T15:05:09;99135.85;;;21.26;77.81
75549;BME280;64133;56.002;37.208;2023-08-20T15:10:16;99139.43;;;21.33;77.13
75549;BME280;64133;56.002;37.208;2023-08-20T15:15:19;99148.91;;;21.19;77.27
75549;BME280;64133;56.002;37.208;2023-08-20T15:20:23;99140.14;;;20.62;78.13
75549;BME280;64133;56.002;37.208;2023-08-20T15:25:29;99137.02;;;20.69;78.67
75549;BME280;64133;56.002;37.208;2023-08-20T15:30:34;99143.70;;;20.87;78.02
75549;BME280;64133;56.002;37.208;2023-08-20T15:35:38;99142.38;;;20.58;77.53
75549;BME280;64133;56.002;37.208;2023-08-20T15:40:43;99155.22;;;20.52;78.03
75549;BME280;64133;56.002;37.208;2023-08-20T15:45:48;99165.10;;;20.30;77.76
75549;BME280;64133;56.002;37.208;2023-08-20T15:50:53;99171.30;;;20.09;78.15
75549;BME280;64133;56.002;37.208;2023-08-20T15:55:58;99170.38;;;20.24;77.99
75549;BME280;64133;56.002;37.208;2023-08-20T16:01:02;99170.34;;;19.96;77.95
75549;BME280;64133;56.002;37.208;2023-08-20T16:06:07;99163.91;;;20.01;77.60
75549;BME280;64133;56.002;37.208;2023-08-20T16:11:12;99169.69;;;19.94;77.88
75549;BME280;64133;56.002;37.208;2023-08-20T16:16:17;99176.13;;;19.89;77.44
75549;BME280;64133;56.002;37.208;2023-08-20T16:21:21;99176.16;;;19.63;77.75
75549;BME280;64133;56.002;37.208;2023-08-20T16:26:26;99166.20;;;19.31;78.31
75549;BME280;64133;56.002;37.208;2023-08-20T16:31:31;99175.90;;;19.18;78.70
75549;BME280;64133;56.002;37.208;2023-08-20T16:36:36;99192.08;;;19.20;79.16
75549;BME280;64133;56.002;37.208;2023-08-20T16:41:40;99198.62;;;19.03;78.85
75549;BME280;64133;56.002;37.208;2023-08-20T16:46:45;99205.42;;;18.72;78.89
75549;BME280;64133;56.002;37.208;2023-08-20T16:51:50;99212.08;;;18.53;79.34
75549;BME280;64133;56.002;37.208;2023-08-20T16:56:56;99208.48;;;18.83;79.13
75549;BME280;64133;56.002;37.208;2023-08-20T17:02:02;99217.03;;;18.60;78.62
75549;BME280;64133;56.002;37.208;2023-08-20T17:07:08;99223.86;;;18.58;78.51
75549;BME280;64133;56.002;37.208;2023-08-20T17:12:15;99222.47;;;18.48;79.18
75549;BME280;64133;56.002;37.208;2023-08-20T17:17:20;99233.68;;;18.43;78.24
75549;BME280;64133;56.002;37.208;2023-08-20T17:22:26;99216.58;;;18.11;79.01
75549;BME280;64133;56.002;37.208;2023-08-20T17:27:34;99244.16;;;18.68;78.24
75549;BME280;64133;56.002;37.208;2023-08-20T17:32:41;99249.61;;;18.74;77.02
75549;BME280;64133;56.002;37.208;2023-08-20T17:37:46;99251.61;;;18.76;77.26
75549;BME280;64133;56.002;37.208;2023-08-20T17:42:52;99259.98;;;18.23;77.12
75549;BME280;64133;56.002;37.208;2023-08-20T17:47:58;99258.62;;;18.04;77.74
75549;BME280;64133;56.002;37.208;2023-08-20T17:53:04;99273.20;;;17.94;76.95
75549;BME280;64133;56.002;37.208;2023-08-20T17:58:20;99267.20;;;17.48;77.85
75549;BME280;64133;56.002;37.208;2023-08-20T18:03:28;99265.83;;;17.61;78.33
75549;BME280;64133;56.002;37.208;2023-08-20T18:08:37;99255.88;;;17.94;78.04
75549;BME280;64133;56.002;37.208;2023-08-20T18:13:44;99259.78;;;17.75;77.35
75549;BME280;64133;56.002;37.208;2023-08-20T18:18:51;99253.33;;;17.61;77.10
75549;BME280;64133;56.002;37.208;2023-08-20T18:23:59;99255.20;;;17.52;78.27
75549;BME280;64133;56.002;37.208;2023-08-20T18:29:05;99257.27;;;17.73;77.51
75549;BME280;64133;56.002;37.208;2023-08-20T18:34:28;99255.74;;;17.40;77.68
75549;BME280;64133;56.002;37.208;2023-08-20T18:39:37;99248.36;;;17.54;78.17
75549;BME280;64133;56.002;37.208;2023-08-20T18:44:46;99257.22;;;17.50;77.06
75549;BME280;64133;56.002;37.208;2023-08-20T18:49:53;99255.91;;;17.46;78.19
75549;BME280;64133;56.002;37.208;2023-08-20T18:55:00;99253.63;;;17.74;77.49
75549;BME280;64133;56.002;37.208;2023-08-20T19:00:08;99254.40;;;17.44;76.36
75549;BME280;64133;56.002;37.208;2023-08-20T19:05:18;99248.80;;;17.26;77.01
75549;BME280;64133;56.002;37.208;2023-08-20T19:10:27;99250.81;;;17.28;76.70
75549;BME280;64133;56.002;37.208;2023-08-20T19:15:35;99241.60;;;17.39;76.67
75549;BME280;64133;56.002;37.208;2023-08-20T19:20:46;99244.50;;;17.21;76.63
75549;BME280;64133;56.002;37.208;2023-08-20T19:25:52;99247.36;;;17.12;77.11
75549;BME280;64133;56.002;37.208;2023-08-20T19:30:58;99248.41;;;16.78;77.60
75549;BME280;64133;56.002;37.208;2023-08-20T19:36:03;99245.41;;;16.69;77.59
75549;BME280;64133;56.002;37.208;2023-08-20T19:41:08;99242.42;;;16.55;78.01
75549;BME280;64133;56.002;37.208;2023-08-20T19:46:13;99250.22;;;16.69;77.35
75549;BME280;64133;56.002;37.208;2023-08-20T19:51:18;99254.37;;;16.84;77.08
75549;BME280;64133;56.002;37.208;2023-08-20T19:56:22;99252.40;;;16.86;77.77
75549;BME280;64133;56.002;37.208;2023-08-20T20:01:27;99249.57;;;16.59;77.40
75549;BME280;64133;56.002;37.208;2023-08-20T20:06:32;99257.53;;;16.92;77.45
75549;BME280;64133;56.002;37.208;2023-08-20T20:11:37;99244.91;;;16.57;78.01
75549;BME280;64133;56.002;37.208;2023-08-20T20:16:41;99245.73;;;16.98;76.52
75549;BME280;64133;56.002;37.208;2023-08-20T20:21:46;99248.55;;;16.84;77.19
75549;BME280;64133;56.002;37.208;2023-08-20T20:26:51;99247.73;;;16.76;78.12
75549;BME280;64133;56.002;37.208;2023-08-20T20:31:55;99254.37;;;16.84;76.36
75549;BME280;64133;56.002;37.208;2023-08-20T20:37:00;99246.40;;;16.80;76.36
75549;BME280;64133;56.002;37.208;2023-08-20T20:42:05;99239.44;;;16.42;76.39
75549;BME280;64133;56.002;37.208;2023-08-20T20:47:10;99243.89;;;16.62;77.36
75549;BME280;64133;56.002;37.208;2023-08-20T20:52:15;99243.25;;;16.56;76.20
75549;BME280;64133;56.002;37.208;2023-08-20T20:57:21;99253.89;;;16.64;77.81
75549;BME280;64133;56.002;37.208;2023-08-20T21:02:24;99252.39;;;16.33;77.32
75549;BME280;64133;56.002;37.208;2023-08-20T21:07:29;99259.52;;;16.45;77.32
75549;BME280;64133;56.002;37.208;2023-08-20T21:12:34;99264.45;;;15.95;77.68
75549;BME280;64133;56.002;37.208;2023-08-20T21:17:39;99260.98;;;16.15;77.89
75549;BME280;64133;56.002;37.208;2023-08-20T21:22:44;99267.15;;;16.23;78.06
75549;BME280;64133;56.002;37.208;2023-08-20T21:27:49;99263.16;;;16.07;77.88
75549;BME280;64133;56.002;37.208;2023-08-20T21:32:53;99260.61;;;15.93;78.47
75549;BME280;64133;56.002;37.208;2023-08-20T21:37:58;99262.65;;;16.03;77.56
75549;BME280;64133;56.002;37.208;2023-08-20T21:43:03;99257.13;;;15.93;79.10
75549;BME280;64133;56.002;37.208;2023-08-20T21:48:08;99255.50;;;16.04;79.24
75549;BME280;64133;56.002;37.208;2023-08-20T21:58:55;99251.66;;;15.90;78.81
75549;BME280;64133;56.002;37.208;2023-08-20T22:03:59;99254.34;;;16.02;78.96
75549;BME280;64133;56.002;37.208;2023-08-20T22:09:04;99254.11;;;15.79;78.68
75549;BME280;64133;56.002;37.208;2023-08-20T22:14:09;99252.17;;;15.94;78.83
75549;BME280;64133;56.002;37.208;2023-08-20T22:19:13;99254.99;;;15.50;78.85
75549;BME280;64133;56.002;37.208;2023-08-20T22:24:18;99257.62;;;15.92;78.95
75549;BME280;64133;56.002;37.208;2023-08-20T22:29:23;99246.66;;;15.87;78.50
75549;BME280;64133;56.002;37.208;2023-08-20T22:34:28;99249.95;;;15.73;78.09
75549;BME280;64133;56.002;37.208;2023-08-20T22:39:33;99253.33;;;15.95;78.35
75549;BME280;64133;56.002;37.208;2023-08-20T22:44:37;99257.02;;;16.23;77.26
75549;BME280;64133;56.002;37.208;2023-08-20T22:49:42;99253.13;;;15.84;78.22
75549;BME280;64133;56.002;37.208;2023-08-20T22:54:47;99250.48;;;15.93;78.99
75549;BME280;64133;56.002;37.208;2023-08-20T22:59:51;99250.61;;;15.32;78.16
75549;BME280;64133;56.002;37.208;2023-08-20T23:04:56;99246.11;;;14.99;79.84
75549;BME280;64133;56.002;37.208;2023-08-20T23:10:01;99194.06;;;15.06;80.25
75549;BME280;64133;56.002;37.208;2023-08-20T23:15:07;99241.45;;;15.31;78.84
75549;BME280;64133;56.002;37.208;2023-08-20T23:20:12;99221.66;;;14.87;79.24
75549;BME280;64133;56.002;37.208;2023-08-20T23:25:17;99248.44;;;15.70;79.52
75549;BME280;64133;56.002;37.208;2023-08-20T23:30:22;99242.88;;;14.87;79.00
75549;BME280;64133;56.002;37.208;2023-08-20T23:35:27;99245.49;;;15.43;80.11
75549;BME280;64133;56.002;37.208;2023-08-20T23:40:31;99239.77;;;15.26;79.15
75549;BME280;64133;56.002;37.208;2023-08-20T23:45:36;99244.67;;;14.82;79.57
75549;BME280;64133;56.002;37.208;2023-08-20T23:50:41;99251.87;;;15.20;80.32
75549;BME280;64133;56.002;37.208;2023-08-20T23:55:45;99250.88;;;14.69;80.04
